sensor_id;sensor_type;location;lat;lon;timestamp;P1;durP1;ratioP1;P2;durP2;ratioP2
65936;SDS011;52707;52.086;5.418;2023-12-22T00:02:13;18.88;;;2.63;;
65936;SDS011;52707;52.086;5.418;2023-12-22T00:04:39;18.35;;;2.25;;
65936;SDS011;52707;52.086;5.418;2023-12-22T00:07:05;25.25;;;4.68;;
65936;SDS011;52707;52.086;5.418;2023-12-22T00:09:32;19.85;;;2.55;;
65936;SDS011;52707;52.086;5.418;2023-12-22T00:11:58;14.65;;;2.80;;
65936;SDS011;52707;52.086;5.418;2023-12-22T00:14:24;17.45;;;2.78;;
65936;SDS011;52707;52.086;5.418;2023-12-22T00:16:51;23.60;;;2.67;;
65936;SDS011;52707;52.086;5.418;2023-12-22T00:19:17;13.75;;;2.15;;
65936;SDS011;52707;52.086;5.418;2023-12-22T00:21:44;7.63;;;1.42;;
65936;SDS011;52707;52.086;5.418;2023-12-22T00:24:10;10.35;;;1.25;;
65936;SDS011;52707;52.086;5.418;2023-12-22T00:26:36;10.13;;;1.90;;
65936;SDS011;52707;52.086;5.418;2023-12-22T00:29:03;5.68;;;1.25;;
65936;SDS011;52707;52.086;5.418;2023-12-22T00:31:29;7.40;;;1.15;;
65936;SDS011;52707;52.086;5.418;2023-12-22T00:33:55;3.95;;;1.00;;
65936;SDS011;52707;52.086;5.418;2023-12-22T00:36:22;7.07;;;1.13;;
65936;SDS011;52707;52.086;5.418;2023-12-22T00:38:50;5.65;;;1.20;;
65936;SDS011;52707;52.086;5.418;2023-12-22T00:41:17;9.70;;;1.00;;
65936;SDS011;52707;52.086;5.418;2023-12-22T00:43:43;10.73;;;1.33;;
65936;SDS011;52707;52.086;5.418;2023-12-22T00:46:10;10.40;;;1.33;;
65936;SDS011;52707;52.086;5.418;2023-12-22T00:48:36;12.00;;;1.45;;
65936;SDS011;52707;52.086;5.418;2023-12-22T00:51:02;7.38;;;1.20;;
65936;SDS011;52707;52.086;5.418;2023-12-22T00:53:29;9.02;;;1.45;;
65936;SDS011;52707;52.086;5.418;2023-12-22T00:55:55;10.68;;;1.75;;
65936;SDS011;52707;52.086;5.418;2023-12-22T00:58:22;6.00;;;1.75;;
65936;SDS011;52707;52.086;5.418;2023-12-22T01:00:48;10.07;;;1.85;;
65936;SDS011;52707;52.086;5.418;2023-12-22T01:03:14;10.50;;;1.50;;
65936;SDS011;52707;52.086;5.418;2023-12-22T01:05:41;7.75;;;1.42;;
65936;SDS011;52707;52.086;5.418;2023-12-22T01:08:08;6.55;;;1.65;;
65936;SDS011;52707;52.086;5.418;2023-12-22T01:10:34;9.27;;;1.92;;
65936;SDS011;52707;52.086;5.418;2023-12-22T01:13:00;7.32;;;1.33;;
65936;SDS011;52707;52.086;5.418;2023-12-22T01:15:27;6.25;;;1.40;;
65936;SDS011;52707;52.086;5.418;2023-12-22T01:17:54;13.88;;;1.77;;
65936;SDS011;52707;52.086;5.418;2023-12-22T01:20:20;11.60;;;1.42;;
65936;SDS011;52707;52.086;5.418;2023-12-22T01:22:47;12.93;;;2.28;;
65936;SDS011;52707;52.086;5.418;2023-12-22T01:25:13;9.98;;;1.70;;
65936;SDS011;52707;52.086;5.418;2023-12-22T01:27:39;7.93;;;1.83;;
65936;SDS011;52707;52.086;5.418;2023-12-22T01:30:06;17.58;;;1.95;;
65936;SDS011;52707;52.086;5.418;2023-12-22T01:32:32;13.07;;;2.25;;
65936;SDS011;52707;52.086;5.418;2023-12-22T01:35:02;11.55;;;2.92;;
65936;SDS011;52707;52.086;5.418;2023-12-22T01:37:33;13.15;;;2.08;;
65936;SDS011;52707;52.086;5.418;2023-12-22T01:39:59;14.77;;;1.80;;
65936;SDS011;52707;52.086;5.418;2023-12-22T01:42:25;16.25;;;2.28;;
65936;SDS011;52707;52.086;5.418;2023-12-22T01:44:52;18.23;;;2.60;;
65936;SDS011;52707;52.086;5.418;2023-12-22T01:47:18;9.68;;;1.83;;
65936;SDS011;52707;52.086;5.418;2023-12-22T01:49:45;13.05;;;2.38;;
65936;SDS011;52707;52.086;5.418;2023-12-22T01:52:11;22.50;;;3.33;;
65936;SDS011;52707;52.086;5.418;2023-12-22T01:54:38;12.55;;;2.78;;
65936;SDS011;52707;52.086;5.418;2023-12-22T01:57:04;17.10;;;2.78;;
65936;SDS011;52707;52.086;5.418;2023-12-22T01:59:31;24.80;;;2.70;;
65936;SDS011;52707;52.086;5.418;2023-12-22T02:02:03;19.25;;;2.25;;
65936;SDS011;52707;52.086;5.418;2023-12-22T02:04:30;16.83;;;2.33;;
65936;SDS011;52707;52.086;5.418;2023-12-22T02:06:58;12.77;;;2.47;;
65936;SDS011;52707;52.086;5.418;2023-12-22T02:09:24;16.25;;;2.55;;
65936;SDS011;52707;52.086;5.418;2023-12-22T02:11:51;15.43;;;2.70;;
65936;SDS011;52707;52.086;5.418;2023-12-22T02:14:17;14.50;;;2.60;;
65936;SDS011;52707;52.086;5.418;2023-12-22T02:16:52;12.40;;;2.42;;
65936;SDS011;52707;52.086;5.418;2023-12-22T02:22:03;9.65;;;2.28;;
65936;SDS011;52707;52.086;5.418;2023-12-22T02:24:34;20.17;;;2.88;;
65936;SDS011;52707;52.086;5.418;2023-12-22T02:29:49;27.95;;;4.05;;
65936;SDS011;52707;52.086;5.418;2023-12-22T02:32:20;22.70;;;2.42;;
65936;SDS011;52707;52.086;5.418;2023-12-22T02:34:50;16.58;;;2.38;;
65936;SDS011;52707;52.086;5.418;2023-12-22T02:37:17;28.33;;;3.80;;
65936;SDS011;52707;52.086;5.418;2023-12-22T02:39:44;13.75;;;2.70;;
65936;SDS011;52707;52.086;5.418;2023-12-22T02:42:10;18.38;;;3.45;;
65936;SDS011;52707;52.086;5.418;2023-12-22T02:44:37;24.23;;;3.30;;
65936;SDS011;52707;52.086;5.418;2023-12-22T02:47:04;25.58;;;3.25;;
65936;SDS011;52707;52.086;5.418;2023-12-22T02:49:30;27.30;;;4.25;;
65936;SDS011;52707;52.086;5.418;2023-12-22T02:51:57;27.17;;;3.80;;
65936;SDS011;52707;52.086;5.418;2023-12-22T02:54:23;27.58;;;3.72;;
65936;SDS011;52707;52.086;5.418;2023-12-22T02:56:49;23.90;;;3.65;;
65936;SDS011;52707;52.086;5.418;2023-12-22T02:59:15;26.50;;;3.72;;
65936;SDS011;52707;52.086;5.418;2023-12-22T03:01:42;27.45;;;4.25;;
65936;SDS011;52707;52.086;5.418;2023-12-22T03:04:08;28.83;;;5.00;;
65936;SDS011;52707;52.086;5.418;2023-12-22T03:06:35;21.83;;;3.72;;
65936;SDS011;52707;52.086;5.418;2023-12-22T03:09:01;23.98;;;3.47;;
65936;SDS011;52707;52.086;5.418;2023-12-22T03:11:28;24.67;;;3.83;;
65936;SDS011;52707;52.086;5.418;2023-12-22T03:13:55;21.83;;;3.45;;
65936;SDS011;52707;52.086;5.418;2023-12-22T03:16:21;31.17;;;4.28;;
65936;SDS011;52707;52.086;5.418;2023-12-22T03:18:47;23.10;;;4.75;;
65936;SDS011;52707;52.086;5.418;2023-12-22T03:21:17;28.40;;;4.10;;
65936;SDS011;52707;52.086;5.418;2023-12-22T03:23:45;26.90;;;4.57;;
65936;SDS011;52707;52.086;5.418;2023-12-22T03:26:11;34.72;;;4.57;;
65936;SDS011;52707;52.086;5.418;2023-12-22T03:28:38;26.08;;;3.60;;
65936;SDS011;52707;52.086;5.418;2023-12-22T03:31:04;29.45;;;3.78;;
65936;SDS011;52707;52.086;5.418;2023-12-22T03:33:33;22.08;;;4.55;;
65936;SDS011;52707;52.086;5.418;2023-12-22T03:35:59;21.00;;;3.80;;
65936;SDS011;52707;52.086;5.418;2023-12-22T03:38:26;19.88;;;3.60;;
65936;SDS011;52707;52.086;5.418;2023-12-22T03:40:52;21.48;;;3.67;;
65936;SDS011;52707;52.086;5.418;2023-12-22T03:43:19;33.08;;;4.78;;
65936;SDS011;52707;52.086;5.418;2023-12-22T03:45:45;28.40;;;4.25;;
65936;SDS011;52707;52.086;5.418;2023-12-22T03:48:12;22.35;;;3.10;;
65936;SDS011;52707;52.086;5.418;2023-12-22T03:50:38;27.85;;;4.53;;
65936;SDS011;52707;52.086;5.418;2023-12-22T03:53:04;27.08;;;3.20;;
65936;SDS011;52707;52.086;5.418;2023-12-22T03:55:31;19.27;;;3.05;;
65936;SDS011;52707;52.086;5.418;2023-12-22T03:57:57;12.88;;;1.88;;
65936;SDS011;52707;52.086;5.418;2023-12-22T04:00:23;11.13;;;1.80;;
65936;SDS011;52707;52.086;5.418;2023-12-22T04:02:50;11.90;;;1.83;;
65936;SDS011;52707;52.086;5.418;2023-12-22T04:05:16;9.60;;;2.10;;
65936;SDS011;52707;52.086;5.418;2023-12-22T04:07:43;13.20;;;2.15;;
65936;SDS011;52707;52.086;5.418;2023-12-22T04:10:09;18.95;;;2.42;;
65936;SDS011;52707;52.086;5.418;2023-12-22T04:12:35;12.85;;;1.85;;
65936;SDS011;52707;52.086;5.418;2023-12-22T04:15:03;8.60;;;2.45;;
65936;SDS011;52707;52.086;5.418;2023-12-22T04:17:29;13.90;;;1.77;;
65936;SDS011;52707;52.086;5.418;2023-12-22T04:19:56;6.63;;;1.58;;
65936;SDS011;52707;52.086;5.418;2023-12-22T04:22:22;12.18;;;2.05;;
65936;SDS011;52707;52.086;5.418;2023-12-22T04:24:49;19.33;;;3.75;;
65936;SDS011;52707;52.086;5.418;2023-12-22T04:27:16;10.85;;;2.13;;
65936;SDS011;52707;52.086;5.418;2023-12-22T04:29:42;17.25;;;3.78;;
65936;SDS011;52707;52.086;5.418;2023-12-22T04:32:08;16.45;;;2.15;;
65936;SDS011;52707;52.086;5.418;2023-12-22T04:34:35;16.08;;;2.08;;
65936;SDS011;52707;52.086;5.418;2023-12-22T04:37:01;20.73;;;2.60;;
65936;SDS011;52707;52.086;5.418;2023-12-22T04:39:27;16.92;;;2.28;;
65936;SDS011;52707;52.086;5.418;2023-12-22T04:41:54;16.90;;;2.10;;
65936;SDS011;52707;52.086;5.418;2023-12-22T04:44:20;26.70;;;2.95;;
65936;SDS011;52707;52.086;5.418;2023-12-22T04:46:47;15.70;;;2.65;;
65936;SDS011;52707;52.086;5.418;2023-12-22T04:49:13;19.88;;;3.33;;
65936;SDS011;52707;52.086;5.418;2023-12-22T04:51:39;16.30;;;3.05;;
65936;SDS011;52707;52.086;5.418;2023-12-22T04:54:06;21.02;;;3.10;;
65936;SDS011;52707;52.086;5.418;2023-12-22T04:56:32;17.90;;;2.75;;
65936;SDS011;52707;52.086;5.418;2023-12-22T04:58:58;21.08;;;3.17;;
65936;SDS011;52707;52.086;5.418;2023-12-22T05:01:25;25.52;;;3.53;;
65936;SDS011;52707;52.086;5.418;2023-12-22T05:03:51;24.48;;;4.32;;
65936;SDS011;52707;52.086;5.418;2023-12-22T05:06:20;26.73;;;5.47;;
65936;SDS011;52707;52.086;5.418;2023-12-22T05:08:46;18.08;;;3.33;;
65936;SDS011;52707;52.086;5.418;2023-12-22T05:11:12;30.60;;;5.13;;
65936;SDS011;52707;52.086;5.418;2023-12-22T05:13:39;27.60;;;4.28;;
65936;SDS011;52707;52.086;5.418;2023-12-22T05:16:06;32.47;;;4.75;;
65936;SDS011;52707;52.086;5.418;2023-12-22T05:18:33;33.45;;;4.65;;
65936;SDS011;52707;52.086;5.418;2023-12-22T05:20:59;30.50;;;4.28;;
65936;SDS011;52707;52.086;5.418;2023-12-22T05:23:26;32.20;;;4.22;;
65936;SDS011;52707;52.086;5.418;2023-12-22T05:25:52;24.23;;;3.67;;
65936;SDS011;52707;52.086;5.418;2023-12-22T05:28:19;19.58;;;3.47;;
65936;SDS011;52707;52.086;5.418;2023-12-22T05:30:45;28.75;;;3.20;;
65936;SDS011;52707;52.086;5.418;2023-12-22T05:33:12;19.58;;;3.63;;
65936;SDS011;52707;52.086;5.418;2023-12-22T05:35:38;14.73;;;2.70;;
65936;SDS011;52707;52.086;5.418;2023-12-22T05:38:06;18.25;;;3.25;;
65936;SDS011;52707;52.086;5.418;2023-12-22T05:40:32;26.20;;;3.50;;
65936;SDS011;52707;52.086;5.418;2023-12-22T05:42:59;30.80;;;3.95;;
65936;SDS011;52707;52.086;5.418;2023-12-22T05:45:25;21.00;;;2.95;;
65936;SDS011;52707;52.086;5.418;2023-12-22T05:47:53;18.95;;;3.08;;
65936;SDS011;52707;52.086;5.418;2023-12-22T05:50:20;16.90;;;2.88;;
65936;SDS011;52707;52.086;5.418;2023-12-22T05:52:46;22.05;;;3.30;;
65936;SDS011;52707;52.086;5.418;2023-12-22T05:55:12;14.98;;;3.30;;
65936;SDS011;52707;52.086;5.418;2023-12-22T05:57:39;22.88;;;3.30;;
65936;SDS011;52707;52.086;5.418;2023-12-22T06:00:05;19.45;;;3.13;;
65936;SDS011;52707;52.086;5.418;2023-12-22T06:02:33;13.45;;;2.60;;
65936;SDS011;52707;52.086;5.418;2023-12-22T06:05:00;15.38;;;2.97;;
65936;SDS011;52707;52.086;5.418;2023-12-22T06:07:27;14.38;;;2.40;;
65936;SDS011;52707;52.086;5.418;2023-12-22T06:09:53;28.50;;;3.22;;
65936;SDS011;52707;52.086;5.418;2023-12-22T06:12:19;20.98;;;3.08;;
65936;SDS011;52707;52.086;5.418;2023-12-22T06:14:46;17.25;;;3.13;;
65936;SDS011;52707;52.086;5.418;2023-12-22T06:17:12;24.35;;;3.60;;
65936;SDS011;52707;52.086;5.418;2023-12-22T06:19:38;28.83;;;4.00;;
65936;SDS011;52707;52.086;5.418;2023-12-22T06:22:05;18.23;;;3.30;;
65936;SDS011;52707;52.086;5.418;2023-12-22T06:24:31;37.72;;;3.97;;
65936;SDS011;52707;52.086;5.418;2023-12-22T06:27:00;29.10;;;3.75;;
65936;SDS011;52707;52.086;5.418;2023-12-22T06:29:27;30.70;;;4.03;;
65936;SDS011;52707;52.086;5.418;2023-12-22T06:31:56;24.77;;;4.30;;
65936;SDS011;52707;52.086;5.418;2023-12-22T06:34:23;22.13;;;4.13;;
65936;SDS011;52707;52.086;5.418;2023-12-22T06:36:50;34.90;;;3.85;;
65936;SDS011;52707;52.086;5.418;2023-12-22T06:39:16;24.83;;;3.03;;
65936;SDS011;52707;52.086;5.418;2023-12-22T06:41:42;31.10;;;4.20;;
65936;SDS011;52707;52.086;5.418;2023-12-22T06:44:09;25.52;;;3.58;;
65936;SDS011;52707;52.086;5.418;2023-12-22T06:46:37;22.58;;;4.13;;
65936;SDS011;52707;52.086;5.418;2023-12-22T06:49:03;23.38;;;3.53;;
65936;SDS011;52707;52.086;5.418;2023-12-22T06:51:33;13.60;;;3.55;;
65936;SDS011;52707;52.086;5.418;2023-12-22T06:54:01;30.73;;;5.68;;
65936;SDS011;52707;52.086;5.418;2023-12-22T06:56:30;25.98;;;3.40;;
65936;SDS011;52707;52.086;5.418;2023-12-22T06:58:56;24.60;;;3.92;;
65936;SDS011;52707;52.086;5.418;2023-12-22T07:01:29;30.52;;;3.50;;
65936;SDS011;52707;52.086;5.418;2023-12-22T07:03:56;32.38;;;4.38;;
65936;SDS011;52707;52.086;5.418;2023-12-22T07:06:23;28.80;;;4.10;;
65936;SDS011;52707;52.086;5.418;2023-12-22T07:11:49;28.27;;;4.03;;
65936;SDS011;52707;52.086;5.418;2023-12-22T07:14:23;25.63;;;4.97;;
65936;SDS011;52707;52.086;5.418;2023-12-22T07:16:49;33.72;;;4.82;;
65936;SDS011;52707;52.086;5.418;2023-12-22T07:19:16;35.35;;;5.60;;
65936;SDS011;52707;52.086;5.418;2023-12-22T07:21:42;28.63;;;4.38;;
65936;SDS011;52707;52.086;5.418;2023-12-22T07:24:12;33.03;;;5.20;;
65936;SDS011;52707;52.086;5.418;2023-12-22T07:26:41;31.85;;;5.50;;
65936;SDS011;52707;52.086;5.418;2023-12-22T07:29:07;35.83;;;5.00;;
65936;SDS011;52707;52.086;5.418;2023-12-22T07:31:34;37.83;;;5.50;;
65936;SDS011;52707;52.086;5.418;2023-12-22T07:34:00;36.10;;;5.50;;
65936;SDS011;52707;52.086;5.418;2023-12-22T07:36:27;37.50;;;5.55;;
65936;SDS011;52707;52.086;5.418;2023-12-22T07:38:54;34.00;;;5.40;;
65936;SDS011;52707;52.086;5.418;2023-12-22T07:41:23;30.77;;;5.22;;
65936;SDS011;52707;52.086;5.418;2023-12-22T07:43:50;42.33;;;6.53;;
65936;SDS011;52707;52.086;5.418;2023-12-22T07:46:19;41.63;;;6.28;;
65936;SDS011;52707;52.086;5.418;2023-12-22T07:48:46;43.85;;;6.32;;
65936;SDS011;52707;52.086;5.418;2023-12-22T07:51:14;23.02;;;3.80;;
65936;SDS011;52707;52.086;5.418;2023-12-22T07:53:40;18.00;;;2.58;;
65936;SDS011;52707;52.086;5.418;2023-12-22T07:56:08;19.60;;;2.60;;
65936;SDS011;52707;52.086;5.418;2023-12-22T07:58:38;16.33;;;3.67;;
65936;SDS011;52707;52.086;5.418;2023-12-22T08:01:04;24.85;;;4.93;;
65936;SDS011;52707;52.086;5.418;2023-12-22T08:03:32;19.73;;;3.00;;
65936;SDS011;52707;52.086;5.418;2023-12-22T08:05:58;27.92;;;5.07;;
65936;SDS011;52707;52.086;5.418;2023-12-22T08:08:25;43.88;;;5.10;;
65936;SDS011;52707;52.086;5.418;2023-12-22T08:10:51;39.33;;;6.00;;
65936;SDS011;52707;52.086;5.418;2023-12-22T08:13:17;23.85;;;4.20;;
65936;SDS011;52707;52.086;5.418;2023-12-22T08:15:44;33.45;;;5.47;;
65936;SDS011;52707;52.086;5.418;2023-12-22T08:18:10;37.80;;;6.28;;
65936;SDS011;52707;52.086;5.418;2023-12-22T08:20:37;33.35;;;5.40;;
65936;SDS011;52707;52.086;5.418;2023-12-22T08:23:08;37.83;;;6.65;;
65936;SDS011;52707;52.086;5.418;2023-12-22T08:25:38;39.92;;;5.65;;
65936;SDS011;52707;52.086;5.418;2023-12-22T08:28:06;32.97;;;4.78;;
65936;SDS011;52707;52.086;5.418;2023-12-22T08:30:33;25.95;;;4.28;;
65936;SDS011;52707;52.086;5.418;2023-12-22T08:32:59;28.52;;;4.00;;
65936;SDS011;52707;52.086;5.418;2023-12-22T08:35:26;21.73;;;3.45;;
65936;SDS011;52707;52.086;5.418;2023-12-22T08:37:52;17.77;;;3.53;;
65936;SDS011;52707;52.086;5.418;2023-12-22T08:40:19;19.10;;;2.55;;
65936;SDS011;52707;52.086;5.418;2023-12-22T08:42:53;9.82;;;2.00;;
65936;SDS011;52707;52.086;5.418;2023-12-22T08:45:26;17.52;;;2.55;;
65936;SDS011;52707;52.086;5.418;2023-12-22T08:47:55;19.13;;;3.05;;
65936;SDS011;52707;52.086;5.418;2023-12-22T08:50:22;19.98;;;2.90;;
65936;SDS011;52707;52.086;5.418;2023-12-22T08:52:48;15.45;;;2.53;;
65936;SDS011;52707;52.086;5.418;2023-12-22T08:55:14;16.10;;;3.28;;
65936;SDS011;52707;52.086;5.418;2023-12-22T08:57:40;18.95;;;3.03;;
65936;SDS011;52707;52.086;5.418;2023-12-22T09:00:21;19.92;;;3.10;;
65936;SDS011;52707;52.086;5.418;2023-12-22T09:02:47;22.23;;;3.10;;
65936;SDS011;52707;52.086;5.418;2023-12-22T09:05:14;30.67;;;4.68;;
65936;SDS011;52707;52.086;5.418;2023-12-22T09:07:40;24.30;;;4.03;;
65936;SDS011;52707;52.086;5.418;2023-12-22T09:10:07;24.23;;;3.95;;
65936;SDS011;52707;52.086;5.418;2023-12-22T09:12:34;20.63;;;3.03;;
65936;SDS011;52707;52.086;5.418;2023-12-22T09:15:00;22.98;;;3.72;;
65936;SDS011;52707;52.086;5.418;2023-12-22T09:17:27;18.13;;;3.42;;
65936;SDS011;52707;52.086;5.418;2023-12-22T09:19:54;19.65;;;3.45;;
65936;SDS011;52707;52.086;5.418;2023-12-22T09:22:21;7.18;;;1.70;;
65936;SDS011;52707;52.086;5.418;2023-12-22T09:24:48;9.43;;;1.95;;
65936;SDS011;52707;52.086;5.418;2023-12-22T09:27:15;9.23;;;1.70;;
65936;SDS011;52707;52.086;5.418;2023-12-22T09:29:41;15.27;;;1.80;;
65936;SDS011;52707;52.086;5.418;2023-12-22T09:32:08;8.23;;;1.48;;
65936;SDS011;52707;52.086;5.418;2023-12-22T09:34:34;5.57;;;1.38;;
65936;SDS011;52707;52.086;5.418;2023-12-22T09:37:01;7.10;;;1.10;;
65936;SDS011;52707;52.086;5.418;2023-12-22T09:39:28;4.38;;;0.85;;
65936;SDS011;52707;52.086;5.418;2023-12-22T09:41:55;3.38;;;0.55;;
65936;SDS011;52707;52.086;5.418;2023-12-22T09:44:21;4.28;;;1.00;;
65936;SDS011;52707;52.086;5.418;2023-12-22T09:46:48;2.10;;;0.68;;
65936;SDS011;52707;52.086;5.418;2023-12-22T09:49:18;7.13;;;1.15;;
65936;SDS011;52707;52.086;5.418;2023-12-22T09:51:46;6.47;;;1.40;;
65936;SDS011;52707;52.086;5.418;2023-12-22T09:54:13;6.57;;;1.13;;
65936;SDS011;52707;52.086;5.418;2023-12-22T09:56:40;10.40;;;1.52;;
65936;SDS011;52707;52.086;5.418;2023-12-22T09:59:12;8.93;;;1.58;;
65936;SDS011;52707;52.086;5.418;2023-12-22T10:01:45;6.30;;;1.48;;
65936;SDS011;52707;52.086;5.418;2023-12-22T10:04:13;17.67;;;2.10;;
65936;SDS011;52707;52.086;5.418;2023-12-22T10:06:40;18.75;;;2.30;;
65936;SDS011;52707;52.086;5.418;2023-12-22T10:09:07;8.30;;;1.83;;
65936;SDS011;52707;52.086;5.418;2023-12-22T10:11:35;7.97;;;1.85;;
65936;SDS011;52707;52.086;5.418;2023-12-22T10:14:02;15.93;;;2.40;;
65936;SDS011;52707;52.086;5.418;2023-12-22T10:16:31;18.63;;;2.30;;
65936;SDS011;52707;52.086;5.418;2023-12-22T10:18:58;15.40;;;2.13;;
65936;SDS011;52707;52.086;5.418;2023-12-22T10:21:25;11.63;;;1.92;;
65936;SDS011;52707;52.086;5.418;2023-12-22T10:23:52;17.20;;;3.15;;
65936;SDS011;52707;52.086;5.418;2023-12-22T10:26:18;13.27;;;2.17;;
65936;SDS011;52707;52.086;5.418;2023-12-22T10:28:46;10.13;;;1.95;;
65936;SDS011;52707;52.086;5.418;2023-12-22T10:31:13;9.65;;;2.28;;
65936;SDS011;52707;52.086;5.418;2023-12-22T10:33:39;6.93;;;1.55;;
65936;SDS011;52707;52.086;5.418;2023-12-22T10:36:07;9.93;;;1.65;;
65936;SDS011;52707;52.086;5.418;2023-12-22T10:38:33;8.02;;;1.67;;
65936;SDS011;52707;52.086;5.418;2023-12-22T10:41:03;12.18;;;1.65;;
65936;SDS011;52707;52.086;5.418;2023-12-22T10:43:29;10.68;;;1.90;;
65936;SDS011;52707;52.086;5.418;2023-12-22T10:45:56;10.93;;;2.17;;
65936;SDS011;52707;52.086;5.418;2023-12-22T10:48:22;12.65;;;1.50;;
65936;SDS011;52707;52.086;5.418;2023-12-22T10:50:49;14.38;;;1.92;;
65936;SDS011;52707;52.086;5.418;2023-12-22T10:53:15;8.68;;;2.33;;
65936;SDS011;52707;52.086;5.418;2023-12-22T10:55:45;8.50;;;2.13;;
65936;SDS011;52707;52.086;5.418;2023-12-22T10:58:13;11.43;;;1.92;;
65936;SDS011;52707;52.086;5.418;2023-12-22T11:00:39;13.25;;;1.90;;
65936;SDS011;52707;52.086;5.418;2023-12-22T11:03:08;19.02;;;2.13;;
65936;SDS011;52707;52.086;5.418;2023-12-22T11:05:34;10.07;;;1.58;;
65936;SDS011;52707;52.086;5.418;2023-12-22T11:08:02;12.68;;;1.80;;
65936;SDS011;52707;52.086;5.418;2023-12-22T11:10:30;10.88;;;1.98;;
65936;SDS011;52707;52.086;5.418;2023-12-22T11:12:57;18.92;;;2.45;;
65936;SDS011;52707;52.086;5.418;2023-12-22T11:15:24;16.15;;;2.63;;
65936;SDS011;52707;52.086;5.418;2023-12-22T11:17:51;19.73;;;2.35;;
65936;SDS011;52707;52.086;5.418;2023-12-22T11:20:18;13.50;;;1.73;;
65936;SDS011;52707;52.086;5.418;2023-12-22T11:22:45;9.95;;;2.10;;
65936;SDS011;52707;52.086;5.418;2023-12-22T11:25:12;7.32;;;2.03;;
65936;SDS011;52707;52.086;5.418;2023-12-22T11:30:09;10.07;;;2.08;;
65936;SDS011;52707;52.086;5.418;2023-12-22T11:32:37;10.80;;;1.95;;
65936;SDS011;52707;52.086;5.418;2023-12-22T11:35:05;9.73;;;1.48;;
65936;SDS011;52707;52.086;5.418;2023-12-22T11:37:35;12.00;;;1.90;;
65936;SDS011;52707;52.086;5.418;2023-12-22T11:40:01;16.02;;;2.35;;
65936;SDS011;52707;52.086;5.418;2023-12-22T11:42:29;12.45;;;2.03;;
65936;SDS011;52707;52.086;5.418;2023-12-22T11:44:58;10.38;;;1.73;;
65936;SDS011;52707;52.086;5.418;2023-12-22T11:47:24;13.52;;;2.05;;
65936;SDS011;52707;52.086;5.418;2023-12-22T11:49:51;10.98;;;2.10;;
65936;SDS011;52707;52.086;5.418;2023-12-22T11:52:18;15.65;;;2.65;;
65936;SDS011;52707;52.086;5.418;2023-12-22T11:54:54;10.68;;;2.28;;
65936;SDS011;52707;52.086;5.418;2023-12-22T12:00:03;11.75;;;1.90;;
65936;SDS011;52707;52.086;5.418;2023-12-22T12:02:34;12.45;;;1.70;;
65936;SDS011;52707;52.086;5.418;2023-12-22T12:05:02;10.93;;;2.08;;
65936;SDS011;52707;52.086;5.418;2023-12-22T12:07:39;16.75;;;2.42;;
65936;SDS011;52707;52.086;5.418;2023-12-22T12:10:08;18.10;;;2.00;;
65936;SDS011;52707;52.086;5.418;2023-12-22T12:12:35;10.82;;;2.17;;
65936;SDS011;52707;52.086;5.418;2023-12-22T12:15:24;17.80;;;2.10;;
65936;SDS011;52707;52.086;5.418;2023-12-22T12:17:49;8.13;;;1.75;;
65936;SDS011;52707;52.086;5.418;2023-12-22T12:20:16;11.80;;;1.98;;
65936;SDS011;52707;52.086;5.418;2023-12-22T12:22:43;14.98;;;1.77;;
65936;SDS011;52707;52.086;5.418;2023-12-22T12:25:10;10.98;;;1.95;;
65936;SDS011;52707;52.086;5.418;2023-12-22T12:28:03;12.35;;;2.75;;
65936;SDS011;52707;52.086;5.418;2023-12-22T12:30:30;12.65;;;1.92;;
65936;SDS011;52707;52.086;5.418;2023-12-22T12:33:07;10.10;;;1.33;;
65936;SDS011;52707;52.086;5.418;2023-12-22T12:35:34;12.10;;;1.60;;
65936;SDS011;52707;52.086;5.418;2023-12-22T12:38:02;8.75;;;1.65;;
65936;SDS011;52707;52.086;5.418;2023-12-22T12:40:29;13.30;;;1.73;;
65936;SDS011;52707;52.086;5.418;2023-12-22T12:42:58;12.70;;;2.13;;
65936;SDS011;52707;52.086;5.418;2023-12-22T12:45:25;18.27;;;2.42;;
65936;SDS011;52707;52.086;5.418;2023-12-22T12:47:59;14.45;;;1.83;;
65936;SDS011;52707;52.086;5.418;2023-12-22T12:50:27;11.88;;;2.08;;
65936;SDS011;52707;52.086;5.418;2023-12-22T12:52:55;13.43;;;1.65;;
65936;SDS011;52707;52.086;5.418;2023-12-22T12:55:22;10.90;;;2.28;;
65936;SDS011;52707;52.086;5.418;2023-12-22T12:57:51;10.35;;;2.13;;
65936;SDS011;52707;52.086;5.418;2023-12-22T13:00:28;12.43;;;2.47;;
65936;SDS011;52707;52.086;5.418;2023-12-22T13:02:54;15.75;;;4.70;;
65936;SDS011;52707;52.086;5.418;2023-12-22T13:07:52;12.25;;;2.42;;
65936;SDS011;52707;52.086;5.418;2023-12-22T13:10:22;17.52;;;2.60;;
65936;SDS011;52707;52.086;5.418;2023-12-22T13:12:49;13.40;;;2.38;;
65936;SDS011;52707;52.086;5.418;2023-12-22T13:15:16;10.15;;;1.83;;
65936;SDS011;52707;52.086;5.418;2023-12-22T13:17:43;9.35;;;1.90;;
65936;SDS011;52707;52.086;5.418;2023-12-22T13:20:10;16.98;;;2.65;;
65936;SDS011;52707;52.086;5.418;2023-12-22T13:22:37;15.25;;;2.28;;
65936;SDS011;52707;52.086;5.418;2023-12-22T13:25:04;16.17;;;2.67;;
65936;SDS011;52707;52.086;5.418;2023-12-22T13:27:30;14.45;;;2.65;;
65936;SDS011;52707;52.086;5.418;2023-12-22T13:29:56;13.10;;;2.08;;
65936;SDS011;52707;52.086;5.418;2023-12-22T13:32:23;16.15;;;2.03;;
65936;SDS011;52707;52.086;5.418;2023-12-22T13:37:20;14.00;;;2.17;;
65936;SDS011;52707;52.086;5.418;2023-12-22T13:39:46;12.43;;;1.50;;
65936;SDS011;52707;52.086;5.418;2023-12-22T13:42:16;10.57;;;2.47;;
65936;SDS011;52707;52.086;5.418;2023-12-22T13:44:43;14.68;;;1.55;;
65936;SDS011;52707;52.086;5.418;2023-12-22T13:47:10;12.88;;;2.40;;
65936;SDS011;52707;52.086;5.418;2023-12-22T13:49:36;14.48;;;1.92;;
65936;SDS011;52707;52.086;5.418;2023-12-22T13:52:03;12.07;;;2.17;;
65936;SDS011;52707;52.086;5.418;2023-12-22T13:54:33;18.67;;;2.20;;
65936;SDS011;52707;52.086;5.418;2023-12-22T13:57:00;15.13;;;2.45;;
65936;SDS011;52707;52.086;5.418;2023-12-22T13:59:31;12.60;;;2.65;;
65936;SDS011;52707;52.086;5.418;2023-12-22T14:04:25;18.02;;;3.05;;
65936;SDS011;52707;52.086;5.418;2023-12-22T14:06:51;11.90;;;2.17;;
65936;SDS011;52707;52.086;5.418;2023-12-22T14:09:18;18.48;;;2.42;;
65936;SDS011;52707;52.086;5.418;2023-12-22T14:11:47;9.57;;;1.77;;
65936;SDS011;52707;52.086;5.418;2023-12-22T14:14:26;15.25;;;2.25;;
65936;SDS011;52707;52.086;5.418;2023-12-22T14:16:53;9.00;;;1.88;;
65936;SDS011;52707;52.086;5.418;2023-12-22T14:19:19;16.70;;;3.15;;
65936;SDS011;52707;52.086;5.418;2023-12-22T14:21:46;18.98;;;2.40;;
65936;SDS011;52707;52.086;5.418;2023-12-22T14:24:12;14.35;;;2.72;;
65936;SDS011;52707;52.086;5.418;2023-12-22T14:26:51;15.63;;;3.30;;
65936;SDS011;52707;52.086;5.418;2023-12-22T14:29:18;17.23;;;2.45;;
65936;SDS011;52707;52.086;5.418;2023-12-22T14:31:44;15.57;;;2.10;;
65936;SDS011;52707;52.086;5.418;2023-12-22T14:34:13;16.15;;;2.42;;
65936;SDS011;52707;52.086;5.418;2023-12-22T14:36:40;20.52;;;2.55;;
65936;SDS011;52707;52.086;5.418;2023-12-22T14:39:06;21.60;;;2.80;;
65936;SDS011;52707;52.086;5.418;2023-12-22T14:41:36;14.80;;;2.40;;
65936;SDS011;52707;52.086;5.418;2023-12-22T14:44:02;14.70;;;2.47;;
65936;SDS011;52707;52.086;5.418;2023-12-22T14:46:29;13.52;;;2.50;;
65936;SDS011;52707;52.086;5.418;2023-12-22T14:48:55;15.20;;;2.00;;
65936;SDS011;52707;52.086;5.418;2023-12-22T14:51:22;15.30;;;2.83;;
65936;SDS011;52707;52.086;5.418;2023-12-22T14:53:48;25.90;;;2.92;;
65936;SDS011;52707;52.086;5.418;2023-12-22T14:56:14;17.33;;;2.63;;
65936;SDS011;52707;52.086;5.418;2023-12-22T14:58:41;18.98;;;2.70;;